createdAt,value
2022-11-15T00:01:18.061Z,100734.56
2022-11-15T00:03:45.929Z,100733.78
2022-11-15T00:06:13.283Z,100735.50
2022-11-15T00:08:40.269Z,100732.06
2022-11-15T00:11:07.305Z,100731.22
2022-11-15T00:13:34.830Z,100723.34
2022-11-15T00:16:03.215Z,100725.16
2022-11-15T00:18:31.726Z,100731.28
2022-11-15T00:21:07.472Z,100724.34
2022-11-15T00:23:35.065Z,100722.63
2022-11-15T00:26:02.240Z,100714.78
2022-11-15T00:28:29.247Z,100705.16
2022-11-15T00:31:02.653Z,100706.97
2022-11-15T00:33:30.055Z,100709.66
2022-11-15T00:36:12.409Z,100700.06
2022-11-15T00:38:41.363Z,100706.28
2022-11-15T00:41:09.786Z,100703.72
2022-11-15T00:43:37.772Z,100697.63
2022-11-15T00:46:04.873Z,100707.31
2022-11-15T00:48:32.480Z,100706.44
2022-11-15T00:50:59.529Z,100710.00
2022-11-15T00:53:26.531Z,100713.53
2022-11-15T00:55:53.702Z,100721.41
2022-11-15T00:58:21.034Z,100711.81
2022-11-15T01:00:48.364Z,100711.81
2022-11-15T01:03:15.439Z,100715.38
2022-11-15T01:05:42.555Z,100713.69
2022-11-15T01:08:17.787Z,100715.44
2022-11-15T01:10:44.778Z,100717.25
2022-11-15T01:13:11.859Z,100722.56
2022-11-15T01:15:42.667Z,100713.88
2022-11-15T01:18:09.800Z,100722.66
2022-11-15T01:20:42.992Z,100720.13
2022-11-15T01:23:10.854Z,100715.78
2022-11-15T01:25:38.618Z,100715.78
2022-11-15T01:28:05.582Z,100716.72
2022-11-15T01:30:32.645Z,100702.69
2022-11-15T01:32:59.618Z,100701.88
2022-11-15T01:35:26.607Z,100699.34
2022-11-15T01:37:53.540Z,100689.75
2022-11-15T01:40:20.486Z,100695.91
2022-11-15T01:42:47.572Z,100693.34
2022-11-15T01:45:16.615Z,100696.91
2022-11-15T01:47:54.648Z,100696.06
2022-11-15T01:50:28.904Z,100690.84
2022-11-15T01:52:56.382Z,100695.25
2022-11-15T01:55:27.820Z,100688.28
2022-11-15T01:58:02.924Z,100685.63
2022-11-15T02:00:31.759Z,100683.94
2022-11-15T02:02:58.955Z,100680.41
2022-11-15T02:05:26.494Z,100669.13
2022-11-15T02:07:53.628Z,100670.06
2022-11-15T02:10:24.289Z,100676.19
2022-11-15T02:12:53.193Z,100669.16
2022-11-15T02:15:20.576Z,100675.34
2022-11-15T02:17:53.273Z,100665.72
2022-11-15T02:21:06.911Z,100662.22
2022-11-15T02:23:48.582Z,100670.16
2022-11-15T02:27:07.249Z,100660.53
2022-11-15T02:29:55.520Z,100664.94
2022-11-15T02:32:47.740Z,100669.34
2022-11-15T02:35:46.695Z,100653.72
2022-11-15T02:38:25.548Z,100664.22
2022-11-15T02:41:05.685Z,100664.25
2022-11-15T02:44:02.069Z,100658.13
2022-11-15T02:46:53.136Z,100661.63
2022-11-15T02:49:20.706Z,100659.91
2022-11-15T02:51:50.903Z,100656.41
2022-11-15T02:54:27.514Z,100653.78
2022-11-15T02:56:58.838Z,100652.91
2022-11-15T02:59:57.332Z,100643.22
2022-11-15T03:03:06.546Z,100652.00
2022-11-15T03:06:02.831Z,100657.25
2022-11-15T03:08:41.671Z,100652.88
2022-11-15T03:11:16.520Z,100647.63
2022-11-15T03:14:17.757Z,100639.75
2022-11-15T03:17:23.772Z,100645.88
2022-11-15T03:20:05.385Z,100636.19
2022-11-15T03:22:43.314Z,100635.31
2022-11-15T03:25:15.187Z,100630.94
2022-11-15T03:27:54.489Z,100628.31
2022-11-15T03:30:21.709Z,100623.06
2022-11-15T03:32:57.918Z,100630.84
2022-11-15T03:35:41.673Z,100626.44
2022-11-15T03:38:26.118Z,100630.03
2022-11-15T03:41:11.337Z,100629.16
2022-11-15T03:44:37.531Z,100625.66
2022-11-15T03:47:15.786Z,100632.69
2022-11-15T03:49:52.044Z,100629.19
2022-11-15T03:52:21.093Z,100630.06
2022-11-15T03:54:57.628Z,100633.59
2022-11-15T03:57:24.691Z,100639.72
2022-11-15T03:59:51.646Z,100644.09
2022-11-15T04:02:18.723Z,100650.22
2022-11-15T04:04:45.650Z,100652.94
2022-11-15T04:07:12.904Z,100653.78
2022-11-15T04:10:00.354Z,100649.41
2022-11-15T04:12:33.432Z,100659.09
2022-11-15T04:15:12.066Z,100657.34
2022-11-15T04:17:48.482Z,100652.13
2022-11-15T04:20:46.631Z,100654.75
2022-11-15T04:23:39.424Z,100648.66
2022-11-15T04:26:22.011Z,100661.81
2022-11-15T04:29:07.786Z,100643.44
2022-11-15T04:31:34.782Z,100642.53
2022-11-15T04:34:01.810Z,100638.16
2022-11-15T04:36:47.487Z,100641.66
2022-11-15T04:39:14.523Z,100655.72
2022-11-15T04:41:41.476Z,100649.56
2022-11-15T04:44:08.471Z,100650.44
2022-11-15T04:46:35.415Z,100648.72
2022-11-15T04:49:02.393Z,100639.94
2022-11-15T04:51:29.377Z,100639.06
2022-11-15T04:53:56.359Z,100637.28
2022-11-15T04:56:23.301Z,100634.63
2022-11-15T04:58:50.889Z,100638.13
2022-11-15T05:01:18.438Z,100638.13
2022-11-15T05:04:05.042Z,100629.38
2022-11-15T05:06:32.494Z,100643.41
2022-11-15T05:08:59.678Z,100632.88
2022-11-15T05:11:28.219Z,100639.03
2022-11-15T05:13:55.457Z,100639.88
2022-11-15T05:16:22.745Z,100646.94
2022-11-15T05:18:53.680Z,100651.31
2022-11-15T05:21:21.619Z,100650.44
2022-11-15T05:23:48.732Z,100654.81
2022-11-15T05:26:18.690Z,100645.16
2022-11-15T05:28:45.974Z,100646.94
2022-11-15T05:31:16.840Z,100645.19
2022-11-15T05:33:45.326Z,100648.66
2022-11-15T05:36:27.356Z,100647.75
2022-11-15T05:38:55.111Z,100645.13
2022-11-15T05:41:33.427Z,100651.28
2022-11-15T05:44:02.270Z,100647.75
2022-11-15T05:46:30.441Z,100656.50
2022-11-15T05:48:58.748Z,100645.06
2022-11-15T05:51:28.607Z,100649.47
2022-11-15T05:53:59.226Z,100639.81
2022-11-15T05:56:27.133Z,100647.69
2022-11-15T05:58:59.927Z,100637.19
2022-11-15T06:01:28.641Z,100641.56
2022-11-15T06:03:55.906Z,100645.03
2022-11-15T06:06:22.939Z,100640.66
2022-11-15T06:08:49.912Z,100645.91
2022-11-15T06:11:17.255Z,100651.16
2022-11-15T06:13:44.226Z,100645.03
2022-11-15T06:16:11.202Z,100654.66
2022-11-15T06:18:38.743Z,100659.00
2022-11-15T06:21:06.182Z,100665.97
2022-11-15T06:23:35.108Z,100656.34
2022-11-15T06:26:04.099Z,100674.66
2022-11-15T06:28:33.436Z,100666.72
2022-11-15T06:31:14.180Z,100674.63
2022-11-15T06:33:41.390Z,100668.50
2022-11-15T06:36:17.420Z,100666.72
2022-11-15T06:38:48.005Z,100667.59
2022-11-15T06:41:15.739Z,100657.91
2022-11-15T06:43:43.207Z,100661.38
2022-11-15T06:46:10.443Z,100676.88
2022-11-15T06:48:37.627Z,100669.59
2022-11-15T06:51:06.054Z,100653.00
2022-11-15T06:53:34.415Z,100637.09
2022-11-15T06:56:07.744Z,100623.78
2022-11-15T06:58:36.012Z,100612.22
2022-11-15T07:01:11.992Z,100606.84
2022-11-15T07:03:42.083Z,100597.91
2022-11-15T07:06:10.788Z,100603.13
2022-11-15T07:08:39.002Z,100598.66
2022-11-15T07:11:08.554Z,100601.25
2022-11-15T07:13:38.211Z,100600.38
2022-11-15T07:16:11.278Z,100607.41
2022-11-15T07:18:41.719Z,100601.16
2022-11-15T07:21:11.469Z,100603.78
2022-11-15T07:23:39.762Z,100613.47
2022-11-15T07:26:08.407Z,100622.31
2022-11-15T07:28:35.819Z,100632.00
2022-11-15T07:31:08.181Z,100638.19
2022-11-15T07:33:36.538Z,100633.75
2022-11-15T07:36:06.504Z,100625.78
2022-11-15T07:38:42.289Z,100635.50
2022-11-15T07:41:10.464Z,100628.44
2022-11-15T07:43:37.441Z,100623.09
2022-11-15T07:46:10.641Z,100609.88
2022-11-15T07:48:44.457Z,100616.97
2022-11-15T07:51:15.255Z,100612.50
2022-11-15T07:53:43.880Z,100608.97
2022-11-15T07:56:11.613Z,100605.41
2022-11-15T07:58:38.644Z,100598.31
2022-11-15T08:01:08.464Z,100601.81
2022-11-15T08:03:36.422Z,100601.81
2022-11-15T08:06:05.874Z,100593.84
2022-11-15T08:08:32.897Z,100599.16
2022-11-15T08:11:00.785Z,100607.09
2022-11-15T08:13:28.157Z,100601.81
2022-11-15T08:16:03.941Z,100598.28
2022-11-15T08:18:30.889Z,100585.91
2022-11-15T08:21:02.363Z,100592.06
2022-11-15T08:23:30.134Z,100585.91
2022-11-15T08:26:03.687Z,100578.81
2022-11-15T08:28:32.125Z,100582.34
2022-11-15T08:30:59.163Z,100573.53
2022-11-15T08:33:26.352Z,100562.94
2022-11-15T08:35:53.276Z,100560.28
2022-11-15T08:38:20.235Z,100565.63
2022-11-15T08:40:47.174Z,100549.72
2022-11-15T08:43:14.136Z,100552.41
2022-11-15T08:45:41.185Z,100547.97
2022-11-15T08:48:08.216Z,100548.88
2022-11-15T08:50:35.223Z,100546.22
2022-11-15T08:53:10.940Z,100543.56
2022-11-15T08:55:39.411Z,100547.97
2022-11-15T08:58:06.622Z,100532.97
2022-11-15T09:00:34.663Z,100540.03
2022-11-15T09:03:07.591Z,100525.91
2022-11-15T09:05:38.741Z,100534.72
2022-11-15T09:08:19.014Z,100538.25
2022-11-15T09:10:53.270Z,100534.69
2022-11-15T09:13:20.301Z,100531.19
2022-11-15T09:15:47.421Z,100535.59
2022-11-15T09:18:14.533Z,100534.72
2022-11-15T09:20:41.517Z,100529.44
2022-11-15T09:23:08.638Z,100529.44
2022-11-15T09:25:35.739Z,100534.72
2022-11-15T09:28:08.481Z,100521.47
2022-11-15T09:30:35.582Z,100534.72
2022-11-15T09:33:13.442Z,100530.31
2022-11-15T09:35:41.972Z,100532.97
2022-11-15T09:38:09.286Z,100539.16
2022-11-15T09:40:38.894Z,100538.25
2022-11-15T09:43:30.502Z,100532.03
2022-11-15T09:46:31.049Z,100531.13
2022-11-15T09:49:03.586Z,100537.31
2022-11-15T09:51:47.528Z,100530.25
2022-11-15T09:54:54.673Z,100517.00
2022-11-15T09:57:33.019Z,100509.03
2022-11-15T10:03:23.040Z,100508.19
2022-11-15T10:05:53.608Z,100499.38
2022-11-15T10:08:32.879Z,100490.53
2022-11-15T10:11:35.764Z,100492.28
2022-11-15T10:13:56.086Z,100488.75
2022-11-15T10:16:59.339Z,100493.16
2022-11-15T10:20:06.209Z,100493.16
2022-11-15T10:22:50.038Z,100489.66
2022-11-15T10:25:32.589Z,100487.88
2022-11-15T10:28:30.538Z,100483.38
2022-11-15T10:31:01.946Z,100474.56
2022-11-15T10:33:40.498Z,100467.47
2022-11-15T10:36:10.447Z,100461.28
2022-11-15T10:38:49.422Z,100461.31
2022-11-15T10:41:43.716Z,100453.31
2022-11-15T10:44:30.499Z,100451.53
2022-11-15T10:46:57.776Z,100448.88
2022-11-15T10:49:29.761Z,100445.34
2022-11-15T10:52:18.257Z,100428.56
2022-11-15T10:55:24.221Z,100429.44
2022-11-15T10:58:22.825Z,100432.13
2022-11-15T11:00:50.013Z,100418.88
2022-11-15T11:03:38.941Z,100403.84
2022-11-15T11:06:19.061Z,100391.44
2022-11-15T11:09:39.599Z,100389.66
2022-11-15T11:12:11.921Z,100391.41
2022-11-15T11:14:40.585Z,100386.97
2022-11-15T11:18:24.198Z,100372.00
2022-11-15T11:20:59.163Z,100367.53
2022-11-15T11:24:01.655Z,100366.66
2022-11-15T11:26:45.034Z,100366.63
2022-11-15T11:29:39.679Z,100349.88
2022-11-15T11:32:32.021Z,100350.69
2022-11-15T11:35:16.425Z,100342.75
2022-11-15T11:38:19.577Z,100333.91
2022-11-15T11:41:03.966Z,100324.19
2022-11-15T11:44:00.861Z,100310.09
2022-11-15T11:47:11.825Z,100316.28
2022-11-15T11:50:11.286Z,100306.53
2022-11-15T11:53:05.787Z,100308.22
2022-11-15T11:55:45.210Z,100301.22
2022-11-15T11:58:23.041Z,100307.41
2022-11-15T12:01:23.405Z,100300.31
2022-11-15T12:04:18.860Z,100292.31
2022-11-15T12:07:16.921Z,100292.31
2022-11-15T12:10:24.513Z,100294.94
2022-11-15T12:13:11.105Z,100289.63
2022-11-15T12:15:51.959Z,100287.88
2022-11-15T12:18:18.933Z,100283.44
2022-11-15T12:21:49.090Z,100278.13
2022-11-15T12:24:34.535Z,100266.63
2022-11-15T12:27:28.247Z,100256.88
2022-11-15T12:30:01.663Z,100264.84
2022-11-15T12:32:36.304Z,100253.38
2022-11-15T12:35:07.474Z,100243.63
2022-11-15T12:37:38.654Z,100243.63
2022-11-15T12:40:25.133Z,100236.53
2022-11-15T12:43:14.019Z,100239.16
2022-11-15T12:45:44.614Z,100223.19
2022-11-15T12:48:17.611Z,100226.75
2022-11-15T12:50:56.159Z,100226.75
2022-11-15T12:53:25.854Z,100211.72
2022-11-15T12:56:17.990Z,100214.38
2022-11-15T12:59:00.152Z,100203.78
2022-11-15T13:01:38.779Z,100191.41
2022-11-15T13:04:20.552Z,100190.53
2022-11-15T13:07:05.532Z,100187.06
2022-11-15T13:09:36.051Z,100184.41
2022-11-15T13:12:08.629Z,100187.03
2022-11-15T13:14:38.396Z,100174.59
2022-11-15T13:17:31.845Z,100175.47
2022-11-15T13:20:07.469Z,100171.97
2022-11-15T13:23:05.961Z,100164.00
2022-11-15T13:26:03.797Z,100156.03
2022-11-15T13:28:42.626Z,100152.50
2022-11-15T13:31:41.354Z,100146.28
2022-11-15T13:34:54.058Z,100149.84
2022-11-15T13:37:23.777Z,100138.31
2022-11-15T13:39:51.441Z,100124.13
2022-11-15T13:42:21.746Z,100126.78
2022-11-15T13:45:05.735Z,100117.06
2022-11-15T13:47:34.928Z,100104.66
2022-11-15T13:50:02.099Z,100105.53
2022-11-15T13:52:40.520Z,100099.38
2022-11-15T13:55:19.974Z,100097.66
2022-11-15T13:58:07.158Z,100083.47
2022-11-15T14:00:45.239Z,100084.38
2022-11-15T14:03:28.730Z,100071.13
2022-11-15T14:06:18.480Z,100065.84
2022-11-15T14:09:17.895Z,100049.97
2022-11-15T14:11:56.533Z,100045.53
2022-11-15T14:14:27.775Z,100048.22
2022-11-15T14:16:58.844Z,100039.34
2022-11-15T14:19:25.658Z,100031.38
2022-11-15T14:22:11.313Z,100029.59
2022-11-15T14:24:39.185Z,100029.59
2022-11-15T14:27:30.093Z,100021.63
2022-11-15T14:29:57.059Z,100018.13
2022-11-15T14:32:39.739Z,100020.72
2022-11-15T14:35:20.781Z,100011.88
2022-11-15T14:37:48.267Z,100011.94
2022-11-15T14:40:19.590Z,100014.53
2022-11-15T14:42:49.418Z,100010.09
2022-11-15T14:45:21.228Z,100005.63
2022-11-15T14:47:49.157Z,100007.34
2022-11-15T14:50:20.720Z,99999.34
2022-11-15T14:52:49.164Z,99997.56
2022-11-15T14:55:36.989Z,99993.13
2022-11-15T14:58:06.250Z,99989.63
2022-11-15T15:00:35.280Z,99986.09
2022-11-15T15:03:04.364Z,99984.34
2022-11-15T15:05:44.079Z,99978.09
2022-11-15T15:08:11.774Z,99989.59
2022-11-15T15:10:45.417Z,99987.81
2022-11-15T15:13:24.537Z,99986.97
2022-11-15T15:15:53.022Z,99986.00
2022-11-15T15:18:20.990Z,99989.56
2022-11-15T15:20:57.665Z,99985.09
2022-11-15T15:23:26.611Z,99981.53
2022-11-15T15:25:54.175Z,99981.56
2022-11-15T15:28:21.201Z,99980.66
2022-11-15T15:30:48.281Z,99970.03
2022-11-15T15:33:15.250Z,99976.22
2022-11-15T15:35:42.443Z,99973.56
2022-11-15T15:38:13.251Z,99972.66
2022-11-15T15:40:43.144Z,99971.78
2022-11-15T15:43:10.313Z,99972.66
2022-11-15T15:45:42.497Z,99970.00
2022-11-15T15:48:17.841Z,99968.22
2022-11-15T15:50:46.103Z,99979.72
2022-11-15T15:53:14.376Z,99969.97
2022-11-15T15:55:41.724Z,99960.28
2022-11-15T15:58:09.358Z,99955.88
2022-11-15T16:00:37.857Z,99949.97
2022-11-15T16:03:04.979Z,99964.84
2022-11-15T16:05:32.214Z,99967.66
2022-11-15T16:07:59.419Z,99974.81
2022-11-15T16:10:32.611Z,99972.22
2022-11-15T16:12:59.592Z,99972.28
2022-11-15T16:15:32.700Z,99970.53
2022-11-15T16:18:01.750Z,99968.81
2022-11-15T16:20:43.691Z,99972.34
2022-11-15T16:23:14.493Z,99974.94
2022-11-15T16:25:56.742Z,99974.97
2022-11-15T16:28:30.279Z,99978.47
2022-11-15T16:31:10.634Z,99983.75
2022-11-15T16:33:38.469Z,99988.16
2022-11-15T16:36:13.611Z,99981.13
2022-11-15T16:38:40.569Z,99966.22
2022-11-15T16:41:07.561Z,99979.41
2022-11-15T16:43:34.603Z,99968.88
2022-11-15T16:46:14.739Z,99971.50
2022-11-15T16:48:41.852Z,99970.63
2022-11-15T16:51:09.191Z,99968.00
2022-11-15T16:53:36.465Z,99964.47
2022-11-15T16:56:04.087Z,99961.84
2022-11-15T16:58:31.769Z,99970.63
2022-11-15T17:00:58.952Z,99972.41
2022-11-15T17:03:26.317Z,99964.50
2022-11-15T17:05:53.294Z,99955.72
2022-11-15T17:08:23.697Z,99958.34
2022-11-15T17:10:50.992Z,99966.25
2022-11-15T17:13:18.006Z,99968.00
2022-11-15T17:15:45.040Z,99952.19
2022-11-15T17:18:14.128Z,99961.00
2022-11-15T17:20:42.731Z,99958.34
2022-11-15T17:23:18.682Z,99959.25
2022-11-15T17:25:45.690Z,99955.72
2022-11-15T17:28:12.658Z,99949.56
2022-11-15T17:30:43.427Z,99949.59
2022-11-15T17:33:10.366Z,99950.47
2022-11-15T17:35:37.370Z,99950.47
2022-11-15T17:38:04.354Z,99943.47
2022-11-15T17:40:31.498Z,99940.81
2022-11-15T17:42:58.560Z,99949.63
2022-11-15T17:45:25.838Z,99946.94
2022-11-15T17:47:53.804Z,99946.97
2022-11-15T17:50:20.837Z,99950.47
2022-11-15T17:52:47.888Z,99952.25
2022-11-15T17:55:14.908Z,99948.75
2022-11-15T17:57:44.301Z,99946.09
2022-11-15T18:00:12.340Z,99952.22
2022-11-15T18:02:39.339Z,99944.31
2022-11-15T18:05:07.194Z,99942.53
2022-11-15T18:07:34.313Z,99944.31
2022-11-15T18:10:01.366Z,99935.50
2022-11-15T18:12:28.356Z,99933.72
2022-11-15T18:14:55.358Z,99938.97
2022-11-15T18:17:23.875Z,99932.81
2022-11-15T18:19:50.850Z,99925.78
2022-11-15T18:22:18.523Z,99929.28
2022-11-15T18:24:47.047Z,99925.75
2022-11-15T18:27:13.990Z,99923.13
2022-11-15T18:29:41.031Z,99927.53
2022-11-15T18:32:12.434Z,99925.78
2022-11-15T18:34:39.992Z,99927.53
2022-11-15T18:37:07.293Z,99924.06
2022-11-15T18:39:34.338Z,99917.91
2022-11-15T18:42:01.511Z,99915.28
2022-11-15T18:44:31.740Z,99908.25
2022-11-15T18:46:58.749Z,99912.63
2022-11-15T18:49:26.114Z,99904.75
2022-11-15T18:51:53.095Z,99907.38
2022-11-15T18:54:20.095Z,99907.38
2022-11-15T18:56:47.545Z,99917.94
2022-11-15T18:59:15.583Z,99907.38
2022-11-15T19:01:48.704Z,99911.78
2022-11-15T19:04:19.140Z,99905.59
2022-11-15T19:06:49.195Z,99896.84
2022-11-15T19:09:18.480Z,99909.16
2022-11-15T19:11:48.007Z,99904.72
2022-11-15T19:14:17.272Z,99896.81
2022-11-15T19:16:55.154Z,99889.78
2022-11-15T19:19:27.763Z,99890.66
2022-11-15T19:21:56.293Z,99887.16
2022-11-15T19:24:23.409Z,99888.91
2022-11-15T19:26:50.394Z,99888.06
2022-11-15T19:29:18.319Z,99882.78
2022-11-15T19:31:46.039Z,99890.66
2022-11-15T19:34:13.141Z,99882.78
2022-11-15T19:36:44.653Z,99881.91
2022-11-15T19:39:14.720Z,99880.16
2022-11-15T19:41:44.135Z,99881.88
2022-11-15T19:44:12.884Z,99881.91
2022-11-15T19:46:40.747Z,99882.78
2022-11-15T19:49:10.798Z,99875.72
2022-11-15T19:51:39.130Z,99879.28
2022-11-15T19:54:08.842Z,99880.09
2022-11-15T19:56:37.010Z,99877.50
2022-11-15T19:59:07.731Z,99877.50
2022-11-15T20:01:38.970Z,99860.84
2022-11-15T20:04:08.135Z,99856.44
2022-11-15T20:06:39.452Z,99859.91
2022-11-15T20:09:06.540Z,99855.53
2022-11-15T20:11:37.867Z,99865.19
2022-11-15T20:14:06.547Z,99867.81
2022-11-15T20:16:33.645Z,99859.94
2022-11-15T20:19:00.717Z,99862.56
2022-11-15T20:21:27.805Z,99859.91
2022-11-15T20:23:56.376Z,99857.28
2022-11-15T20:26:23.706Z,99856.38
2022-11-15T20:28:50.741Z,99855.50
2022-11-15T20:31:18.174Z,99857.28
2022-11-15T20:33:45.774Z,99862.53
2022-11-15T20:36:15.735Z,99854.63
2022-11-15T20:38:44.412Z,99859.91
2022-11-15T20:41:12.770Z,99852.00
2022-11-15T20:43:43.332Z,99859.03
2022-11-15T20:46:12.392Z,99850.22
2022-11-15T20:48:40.818Z,99855.47
2022-11-15T20:51:17.940Z,99851.09
2022-11-15T20:53:46.224Z,99853.72
2022-11-15T20:56:17.598Z,99849.34
2022-11-15T20:58:45.940Z,99854.63
2022-11-15T21:01:16.300Z,99850.22
2022-11-15T21:03:43.818Z,99847.59
2022-11-15T21:06:11.809Z,99847.56
2022-11-15T21:08:57.463Z,99842.28
2022-11-15T21:11:44.050Z,99841.41
2022-11-15T21:14:11.226Z,99837.00
2022-11-15T21:16:39.021Z,99834.38
2022-11-15T21:19:07.004Z,99830.88
2022-11-15T21:21:36.111Z,99823.81
2022-11-15T21:24:08.794Z,99829.09
2022-11-15T21:26:36.924Z,99822.94
2022-11-15T21:29:04.870Z,99813.28
2022-11-15T21:31:32.227Z,99824.72
2022-11-15T21:34:02.630Z,99811.50
2022-11-15T21:36:30.015Z,99800.09
2022-11-15T21:38:57.046Z,99800.97
2022-11-15T21:41:24.158Z,99824.69
2022-11-15T21:43:51.173Z,99804.50
2022-11-15T21:46:18.247Z,99800.97
2022-11-15T21:48:45.187Z,99797.47
2022-11-15T21:51:13.263Z,99792.19
2022-11-15T21:53:40.252Z,99798.34
2022-11-15T21:56:08.186Z,99788.66
2022-11-15T21:58:35.879Z,99792.16
2022-11-15T22:01:22.239Z,99786.03
2022-11-15T22:03:49.331Z,99792.16
2022-11-15T22:06:18.140Z,99793.03
2022-11-15T22:08:46.342Z,99784.28
2022-11-15T22:11:14.188Z,99788.69
2022-11-15T22:13:41.418Z,99782.50
2022-11-15T22:16:10.107Z,99779.00
2022-11-15T22:18:38.164Z,99781.66
2022-11-15T22:21:10.921Z,99771.94
2022-11-15T22:23:38.417Z,99780.75
2022-11-15T22:26:06.202Z,99779.84
2022-11-15T22:28:33.689Z,99778.09
2022-11-15T22:31:00.807Z,99785.13
2022-11-15T22:33:30.313Z,99779.00
2022-11-15T22:35:58.691Z,99769.31
2022-11-15T22:38:26.728Z,99777.22
2022-11-15T22:40:54.492Z,99761.41
2022-11-15T22:43:23.973Z,99760.53
2022-11-15T22:45:55.647Z,99761.44
2022-11-15T22:48:27.079Z,99761.41
2022-11-15T22:50:54.857Z,99762.31
2022-11-15T22:53:22.610Z,99764.03
2022-11-15T22:56:07.771Z,99762.31
2022-11-15T22:58:35.699Z,99773.72
2022-11-15T23:01:05.146Z,99772.84
2022-11-15T23:03:33.548Z,99777.22
2022-11-15T23:06:06.844Z,99767.56
2022-11-15T23:08:35.006Z,99772.84
2022-11-15T23:11:22.765Z,99767.56
2022-11-15T23:13:53.285Z,99756.13
2022-11-15T23:16:23.263Z,99762.31
2022-11-15T23:18:57.523Z,99754.41
2022-11-15T23:22:05.928Z,99763.19
2022-11-15T23:24:33.747Z,99750.84
2022-11-15T23:27:07.179Z,99735.03
2022-11-15T23:29:56.205Z,99732.41
2022-11-15T23:32:41.701Z,99762.31
2022-11-15T23:35:08.958Z,99753.47
2022-11-15T23:37:35.974Z,99763.13
2022-11-15T23:40:03.223Z,99760.50
2022-11-15T23:42:30.177Z,99748.19
2022-11-15T23:44:57.206Z,99754.38
2022-11-15T23:47:24.225Z,99741.22
2022-11-15T23:49:51.195Z,99742.97
2022-11-15T23:52:18.596Z,99745.59
2022-11-15T23:54:45.597Z,99745.59
2022-11-15T23:57:12.829Z,99749.13
2022-11-15T23:59:43.765Z,99753.50
